Time;durP1;ratioP1;P1;durP2;ratioP2;P2;SDS_P1;SDS_P2;PMS_P1;PMS_P2;Temp;Humidity;BMP_temperature;BMP_pressure;BME280_temperature;BME280_humidity;BME280_pressure;Samples;Min_cycle;Max_cycle;Signal;HPM_P1;HPM_P2
2023/03/14 00:01:25;;;;;;;6.57;1.92;;;;;;;;;;5005315;28;20083;-67
2023/03/14 00:03:58;;;;;;;5.15;1.65;;;;;;;;;;5022081;28;20119;-68
2023/03/14 00:06:24;;;;;;;3.70;1.45;;;;;;;;;;5021242;28;20053;-67
2023/03/14 00:08:52;;;;;;;6.95;1.70;;;;;;;;;;5039953;28;20059;-65
2023/03/14 00:11:19;;;;;;;3.88;1.50;;;;;;;;;;5055017;28;20058;-68
2023/03/14 00:13:47;;;;;;;9.68;1.70;;;;;;;;;;5025046;28;20061;-67
2023/03/14 00:16:13;;;;;;;6.43;1.52;;;;;;;;;;5056899;28;20143;-69
2023/03/14 00:18:40;;;;;;;6.25;1.75;;;;;;;;;;5027256;28;20088;-65
2023/03/14 00:21:08;;;;;;;4.20;1.40;;;;;;;;;;5011979;28;20052;-66
2023/03/14 00:23:35;;;;;;;7.68;1.60;;;;;;;;;;5038621;28;20051;-68
2023/03/14 00:26:04;;;;;;;4.00;1.20;;;;;;;;;;5056744;28;20048;-69
2023/03/14 00:28:33;;;;;;;4.65;1.27;;;;;;;;;;5051941;28;20059;-67
2023/03/14 00:30:59;;;;;;;7.00;1.60;;;;;;;;;;5024994;28;20057;-65
2023/03/14 00:33:25;;;;;;;5.90;1.30;;;;;;;;;;5055186;28;20087;-68
2023/03/14 00:35:55;;;;;;;6.15;1.55;;;;;;;;;;5036558;28;20056;-69
2023/03/14 00:38:22;;;;;;;8.93;1.75;;;;;;;;;;5029428;28;20096;-67
2023/03/14 00:40:49;;;;;;;3.50;1.17;;;;;;;;;;5024395;28;20094;-67
2023/03/14 00:43:21;;;;;;;4.80;1.58;;;;;;;;;;5049262;28;20063;-64
2023/03/14 00:45:48;;;;;;;8.40;1.90;;;;;;;;;;5075517;28;20128;-64
2023/03/14 00:48:14;;;;;;;4.47;1.33;;;;;;;;;;5084880;27;20075;-66
2023/03/14 00:50:41;;;;;;;3.67;1.25;;;;;;;;;;5078917;28;20135;-65
2023/03/14 00:53:07;;;;;;;4.63;1.35;;;;;;;;;;5052504;28;20061;-69
2023/03/14 00:55:37;;;;;;;2.95;1.17;;;;;;;;;;5050984;28;20113;-67
2023/03/14 00:58:03;;;;;;;5.38;1.38;;;;;;;;;;5058001;28;20106;-63
2023/03/14 01:00:31;;;;;;;5.18;1.20;;;;;;;;;;5051304;28;20060;-67
2023/03/14 01:02:58;;;;;;;4.70;1.40;;;;;;;;;;5040355;28;20153;-64
2023/03/14 01:05:24;;;;;;;9.75;1.30;;;;;;;;;;5050868;28;20060;-66
2023/03/14 01:07:50;;;;;;;6.40;1.27;;;;;;;;;;5053738;28;20113;-67
2023/03/14 01:10:17;;;;;;;3.80;1.05;;;;;;;;;;5038386;28;20049;-67
2023/03/14 01:12:45;;;;;;;5.00;1.20;;;;;;;;;;5047668;28;20056;-66
2023/03/14 01:15:12;;;;;;;4.93;1.00;;;;;;;;;;5047890;28;20050;-65
2023/03/14 01:17:40;;;;;;;2.53;1.00;;;;;;;;;;5049091;28;20139;-67
2023/03/14 01:20:08;;;;;;;2.95;0.80;;;;;;;;;;5044892;28;20052;-65
2023/03/14 01:22:35;;;;;;;6.88;1.17;;;;;;;;;;5041616;28;20056;-66
2023/03/14 01:25:04;;;;;;;6.85;0.95;;;;;;;;;;5063087;27;20053;-67
2023/03/14 01:27:31;;;;;;;3.75;1.13;;;;;;;;;;5045132;28;20067;-65
2023/03/14 01:29:57;;;;;;;4.57;1.02;;;;;;;;;;5051696;28;20049;-65
2023/03/14 01:32:25;;;;;;;6.53;1.27;;;;;;;;;;5051177;28;20087;-62
2023/03/14 01:34:53;;;;;;;9.18;1.15;;;;;;;;;;5041099;28;20068;-66
2023/03/14 01:37:19;;;;;;;2.10;0.93;;;;;;;;;;5044297;28;20067;-65
2023/03/14 01:39:47;;;;;;;3.53;1.13;;;;;;;;;;5041893;28;20135;-65
2023/03/14 01:42:13;;;;;;;4.70;1.17;;;;;;;;;;5032253;28;20152;-64
2023/03/14 01:44:50;;;;;;;2.58;0.90;;;;;;;;;;5045877;28;20252;-66
2023/03/14 01:47:16;;;;;;;5.32;1.05;;;;;;;;;;5054082;28;20076;-65
2023/03/14 01:49:43;;;;;;;7.43;1.10;;;;;;;;;;5055735;28;20080;-67
2023/03/14 01:52:11;;;;;;;3.92;0.85;;;;;;;;;;5042385;28;20083;-64
2023/03/14 01:54:40;;;;;;;2.38;0.77;;;;;;;;;;5054143;28;20066;-65
2023/03/14 01:57:11;;;;;;;3.20;1.00;;;;;;;;;;5042469;28;20057;-68
2023/03/14 01:59:38;;;;;;;3.58;0.80;;;;;;;;;;5028652;28;20057;-65
2023/03/14 02:02:07;;;;;;;5.47;1.00;;;;;;;;;;5012562;28;20048;-66
2023/03/14 02:04:33;;;;;;;;;;;;;;;;;;5044225;28;20059;-68
2023/03/14 02:07:01;;;;;;;4.68;0.93;;;;;;;;;;5027029;28;19925;-68
2023/03/14 02:09:31;;;;;;;6.63;1.13;;;;;;;;;;5036118;28;20064;-67
2023/03/14 02:11:58;;;;;;;6.13;1.10;;;;;;;;;;5042665;28;20127;-67
2023/03/14 02:14:30;;;;;;;4.47;1.10;;;;;;;;;;5039616;28;20114;-67
2023/03/14 02:16:56;;;;;;;2.88;1.00;;;;;;;;;;5029709;28;20927;-66
2023/03/14 02:19:27;;;;;;;6.90;0.90;;;;;;;;;;5031789;28;20148;-68
2023/03/14 02:21:56;;;;;;;3.67;0.93;;;;;;;;;;5026444;28;20108;-68
2023/03/14 02:24:27;;;;;;;2.80;0.82;;;;;;;;;;5062803;28;20470;-68
2023/03/14 02:27:17;;;;;;;2.42;0.85;;;;;;;;;;5017435;28;20198;-65
2023/03/14 02:29:50;;;;;;;4.50;1.02;;;;;;;;;;5007652;28;20097;-65
2023/03/14 02:32:17;;;;;;;2.05;0.80;;;;;;;;;;5043435;28;20061;-67
2023/03/14 02:34:45;;;;;;;2.45;0.88;;;;;;;;;;5054607;28;20084;-67
2023/03/14 02:37:12;;;;;;;3.73;0.90;;;;;;;;;;5025726;28;20062;-64
2023/03/14 02:39:40;;;;;;;2.50;0.90;;;;;;;;;;5045102;28;20568;-68
2023/03/14 02:42:07;;;;;;;1.93;0.97;;;;;;;;;;5036551;28;20092;-64
2023/03/14 02:44:35;;;;;;;4.05;1.10;;;;;;;;;;5006794;28;20126;-69
2023/03/14 02:47:03;;;;;;;4.05;0.90;;;;;;;;;;5034453;28;20053;-69
2023/03/14 02:49:32;;;;;;;2.03;0.70;;;;;;;;;;5031666;28;20050;-66
2023/03/14 02:51:59;;;;;;;2.80;0.90;;;;;;;;;;5021830;28;20061;-69
2023/03/14 02:54:25;;;;;;;2.13;0.93;;;;;;;;;;5037556;28;20059;-66
2023/03/14 02:56:52;;;;;;;2.33;1.10;;;;;;;;;;5046922;28;20060;-66
2023/03/14 02:59:18;;;;;;;4.18;1.48;;;;;;;;;;5052803;28;20080;-66
2023/03/14 03:01:45;;;;;;;4.55;1.00;;;;;;;;;;5046549;28;20056;-69
2023/03/14 03:04:13;;;;;;;4.20;1.13;;;;;;;;;;5019805;28;20052;-66
2023/03/14 03:06:39;;;;;;;2.07;0.90;;;;;;;;;;5046291;28;20051;-66
2023/03/14 03:09:06;;;;;;;3.60;1.00;;;;;;;;;;5047214;28;20148;-67
2023/03/14 03:11:32;;;;;;;5.65;1.05;;;;;;;;;;5043144;28;20140;-67
2023/03/14 03:13:59;;;;;;;1.85;0.90;;;;;;;;;;5022138;28;20063;-65
2023/03/14 03:16:25;;;;;;;2.15;0.80;;;;;;;;;;5030459;28;20053;-67
2023/03/14 03:18:51;;;;;;;1.25;0.63;;;;;;;;;;5036643;28;20080;-68
2023/03/14 03:21:23;;;;;;;2.53;0.70;;;;;;;;;;5010705;28;20063;-67
2023/03/14 03:23:49;;;;;;;3.00;0.63;;;;;;;;;;5032367;28;20060;-66
2023/03/14 03:26:15;;;;;;;4.38;0.85;;;;;;;;;;5025791;28;20075;-65
2023/03/14 03:28:42;;;;;;;7.13;1.00;;;;;;;;;;5038875;28;20076;-69
2023/03/14 03:31:09;;;;;;;1.52;0.80;;;;;;;;;;5036626;28;20079;-67
2023/03/14 03:33:36;;;;;;;5.28;0.98;;;;;;;;;;5030143;28;20088;-69
2023/03/14 03:36:03;;;;;;;3.60;0.70;;;;;;;;;;4987315;28;20080;-68
2023/03/14 03:38:30;;;;;;;2.75;0.70;;;;;;;;;;5033447;28;20144;-70
2023/03/14 03:40:57;;;;;;;3.83;0.90;;;;;;;;;;5020291;28;20105;-67
2023/03/14 03:43:24;;;;;;;2.42;0.77;;;;;;;;;;5029293;28;20179;-68
2023/03/14 03:45:50;;;;;;;1.42;0.75;;;;;;;;;;5009460;28;20057;-68
2023/03/14 03:48:17;;;;;;;2.25;0.75;;;;;;;;;;5055436;28;20082;-63
2023/03/14 03:50:46;;;;;;;4.13;0.98;;;;;;;;;;5047315;28;20386;-68
2023/03/14 03:53:12;;;;;;;3.90;0.80;;;;;;;;;;5044514;28;20052;-67
2023/03/14 03:55:42;;;;;;;3.58;1.00;;;;;;;;;;5044667;28;20081;-64
2023/03/14 03:58:09;;;;;;;2.05;0.77;;;;;;;;;;5048036;28;20075;-68
2023/03/14 04:00:36;;;;;;;3.40;1.02;;;;;;;;;;5034529;28;20106;-69
2023/03/14 04:03:04;;;;;;;6.72;1.40;;;;;;;;;;5031545;28;20061;-67
2023/03/14 04:05:31;;;;;;;3.80;1.00;;;;;;;;;;5027656;28;20048;-63
2023/03/14 04:07:57;;;;;;;2.88;0.80;;;;;;;;;;5032027;28;20160;-66
2023/03/14 04:10:24;;;;;;;5.32;0.93;;;;;;;;;;5029006;28;20060;-66
2023/03/14 04:12:52;;;;;;;2.20;0.70;;;;;;;;;;5046623;28;20052;-66
2023/03/14 04:15:18;;;;;;;4.68;1.00;;;;;;;;;;5020723;28;20325;-66
2023/03/14 04:17:45;;;;;;;3.88;1.23;;;;;;;;;;5046151;28;20049;-67
2023/03/14 04:20:12;;;;;;;6.53;1.02;;;;;;;;;;5047586;28;20124;-65
2023/03/14 04:22:38;;;;;;;6.55;1.08;;;;;;;;;;5048153;28;20068;-65
2023/03/14 04:25:16;;;;;;;3.80;1.00;;;;;;;;;;5010157;28;20143;-65
2023/03/14 04:27:42;;;;;;;7.17;1.00;;;;;;;;;;5047634;28;20044;-67
2023/03/14 04:30:11;;;;;;;6.72;1.20;;;;;;;;;;5057057;28;20114;-64
2023/03/14 04:32:39;;;;;;;3.33;1.05;;;;;;;;;;5052534;28;20154;-66
2023/03/14 04:35:08;;;;;;;4.57;1.23;;;;;;;;;;5041400;28;20088;-66
2023/03/14 04:37:37;;;;;;;4.63;1.10;;;;;;;;;;5041807;28;20048;-65
2023/03/14 04:40:06;;;;;;;3.08;1.20;;;;;;;;;;5053150;27;20079;-65
2023/03/14 04:42:32;;;;;;;3.55;1.00;;;;;;;;;;5046788;28;20063;-67
2023/03/14 04:45:00;;;;;;;4.93;1.10;;;;;;;;;;5001095;28;20116;-67
2023/03/14 04:47:27;;;;;;;6.75;1.25;;;;;;;;;;5041319;28;20059;-64
2023/03/14 04:49:54;;;;;;;3.28;1.08;;;;;;;;;;5028696;28;20219;-67
2023/03/14 04:52:20;;;;;;;5.93;0.80;;;;;;;;;;5041009;28;20196;-66
2023/03/14 04:54:47;;;;;;;5.40;1.10;;;;;;;;;;5033383;28;20048;-67
2023/03/14 04:57:13;;;;;;;5.25;1.05;;;;;;;;;;5064527;27;20052;-65
2023/03/14 04:59:40;;;;;;;3.65;1.15;;;;;;;;;;5033595;28;20196;-67
2023/03/14 05:02:06;;;;;;;2.95;0.98;;;;;;;;;;5051393;28;20053;-68
2023/03/14 05:04:34;;;;;;;6.00;1.15;;;;;;;;;;5013344;28;20079;-65
2023/03/14 05:07:01;;;;;;;3.53;0.90;;;;;;;;;;5046051;28;20131;-66
2023/03/14 05:09:27;;;;;;;3.33;0.90;;;;;;;;;;5035901;28;20091;-67
2023/03/14 05:11:56;;;;;;;2.15;1.00;;;;;;;;;;5053218;28;20052;-67
2023/03/14 05:14:23;;;;;;;5.07;1.15;;;;;;;;;;5022286;28;20124;-67
2023/03/14 05:16:49;;;;;;;3.80;0.80;;;;;;;;;;5043598;28;20095;-67
2023/03/14 05:19:16;;;;;;;6.22;0.85;;;;;;;;;;5044550;28;20048;-67
2023/03/14 05:21:43;;;;;;;3.40;0.90;;;;;;;;;;5032721;28;20105;-67
2023/03/14 05:24:10;;;;;;;8.33;0.90;;;;;;;;;;5004571;28;20132;-65
2023/03/14 05:26:36;;;;;;;2.80;0.70;;;;;;;;;;5051305;28;20076;-63
2023/03/14 05:29:03;;;;;;;2.50;0.82;;;;;;;;;;5053980;28;20052;-63
2023/03/14 05:31:30;;;;;;;3.97;0.90;;;;;;;;;;5025514;28;20061;-65
2023/03/14 05:33:56;;;;;;;2.72;0.73;;;;;;;;;;5036891;28;20057;-66
2023/03/14 05:36:22;;;;;;;3.10;0.80;;;;;;;;;;5055197;28;20279;-67
2023/03/14 05:38:50;;;;;;;1.08;0.73;;;;;;;;;;5045002;28;20071;-66
2023/03/14 05:41:17;;;;;;;3.60;0.77;;;;;;;;;;5047988;28;20052;-66
2023/03/14 05:43:43;;;;;;;4.65;0.82;;;;;;;;;;5016638;28;20048;-68
2023/03/14 05:46:10;;;;;;;2.50;0.68;;;;;;;;;;5032557;28;20262;-63
2023/03/14 05:48:36;;;;;;;3.80;0.88;;;;;;;;;;5043181;28;20072;-64
2023/03/14 05:51:08;;;;;;;2.50;0.80;;;;;;;;;;5019912;28;20060;-66
2023/03/14 05:53:35;;;;;;;4.00;1.08;;;;;;;;;;5043836;28;20076;-65
2023/03/14 05:56:03;;;;;;;5.30;1.10;;;;;;;;;;5008571;28;20052;-69
2023/03/14 05:58:31;;;;;;;3.37;0.77;;;;;;;;;;5050656;28;20162;-69
2023/03/14 06:00:58;;;;;;;;;;;;;;;;;;5028465;28;20182;-67
2023/03/14 06:03:33;;;;;;;6.05;1.20;;;;;;;;;;5053450;28;19932;-66
2023/03/14 06:06:00;;;;;;;3.83;1.00;;;;;;;;;;5025686;28;20117;-67
2023/03/14 06:08:32;;;;;;;1.90;0.90;;;;;;;;;;5040482;28;20060;-68
2023/03/14 06:11:07;;;;;;;1.83;0.95;;;;;;;;;;5027647;28;20135;-67
2023/03/14 06:13:54;;;;;;;3.58;0.90;;;;;;;;;;5038574;28;20067;-67
2023/03/14 06:16:21;;;;;;;3.35;1.10;;;;;;;;;;5023218;28;20062;-68
2023/03/14 06:18:52;;;;;;;3.60;1.33;;;;;;;;;;5052497;28;20187;-68
2023/03/14 06:21:19;;;;;;;4.30;1.38;;;;;;;;;;5036379;28;20182;-67
2023/03/14 06:23:48;;;;;;;3.40;1.38;;;;;;;;;;5041264;28;20053;-67
2023/03/14 06:26:17;;;;;;;3.35;1.10;;;;;;;;;;5047278;28;20211;-68
2023/03/14 06:28:50;;;;;;;3.10;1.10;;;;;;;;;;5030047;28;20365;-67
2023/03/14 06:31:21;;;;;;;3.60;1.30;;;;;;;;;;5012544;28;20059;-68
2023/03/14 06:33:50;;;;;;;10.73;1.38;;;;;;;;;;5042884;28;20143;-70
2023/03/14 06:36:20;;;;;;;4.97;1.50;;;;;;;;;;4994994;28;20052;-67
2023/03/14 06:38:51;;;;;;;5.32;1.60;;;;;;;;;;5050263;28;20231;-69
2023/03/14 06:41:23;;;;;;;5.00;1.58;;;;;;;;;;5048625;27;20235;-69
2023/03/14 06:43:52;;;;;;;5.97;1.63;;;;;;;;;;5066337;28;20102;-69
2023/03/14 06:46:18;;;;;;;;;;;;;;;;;;5038891;28;20059;-66
2023/03/14 06:48:47;;;;;;;3.38;1.30;;;;;;;;;;5054732;28;19986;-63
2023/03/14 06:51:16;;;;;;;5.53;1.63;;;;;;;;;;5049860;28;20060;-66
2023/03/14 06:53:45;;;;;;;3.95;1.55;;;;;;;;;;5038167;28;20059;-65
2023/03/14 06:56:14;;;;;;;5.03;1.55;;;;;;;;;;4991535;28;20052;-69
2023/03/14 06:58:58;;;;;;;6.47;2.80;;;;;;;;;;5049010;28;20432;-65
2023/03/14 07:01:27;;;;;;;3.42;1.60;;;;;;;;;;5059886;28;20215;-69
2023/03/14 07:03:54;;;;;;;4.57;1.73;;;;;;;;;;5060237;28;20122;-65
2023/03/14 07:06:21;;;;;;;4.18;1.90;;;;;;;;;;4993815;28;20147;-70
2023/03/14 07:08:49;;;;;;;4.72;1.88;;;;;;;;;;5039303;28;20175;-67
2023/03/14 07:11:19;;;;;;;4.80;1.80;;;;;;;;;;5048228;28;20279;-68
2023/03/14 07:13:48;;;;;;;3.83;1.60;;;;;;;;;;5034795;28;20098;-66
2023/03/14 07:16:17;;;;;;;3.13;1.42;;;;;;;;;;5019730;28;20056;-67
2023/03/14 07:18:45;;;;;;;5.53;1.80;;;;;;;;;;5004759;28;20046;-67
2023/03/14 07:21:17;;;;;;;4.13;1.42;;;;;;;;;;4930997;28;20058;-65
2023/03/14 07:23:44;;;;;;;4.20;1.45;;;;;;;;;;4965143;28;20175;-69
2023/03/14 07:26:13;;;;;;;3.05;1.23;;;;;;;;;;4933285;28;20058;-68
2023/03/14 07:28:42;;;;;;;3.92;1.42;;;;;;;;;;4926560;28;20126;-65
2023/03/14 07:31:11;;;;;;;3.55;1.30;;;;;;;;;;4971842;28;20138;-67
2023/03/14 07:33:39;;;;;;;3.10;1.08;;;;;;;;;;5023636;28;20066;-67
2023/03/14 07:36:08;;;;;;;3.67;1.00;;;;;;;;;;5051100;28;20071;-70
2023/03/14 07:38:36;;;;;;;2.70;1.10;;;;;;;;;;5060938;28;20395;-66
2023/03/14 07:41:04;;;;;;;;;;;;;;;;;;5040257;28;20111;-69
2023/03/14 07:43:31;;;;;;;1.73;0.90;;;;;;;;;;5044599;28;19959;-68
2023/03/14 07:46:00;;;;;;;3.45;1.20;;;;;;;;;;4999409;28;20191;-65
2023/03/14 07:48:33;;;;;;;2.15;1.05;;;;;;;;;;5011724;28;20049;-69
2023/03/14 07:51:10;;;;;;;2.65;1.00;;;;;;;;;;5026682;28;20132;-72
2023/03/14 07:53:39;;;;;;;4.85;0.88;;;;;;;;;;5025855;28;20061;-67
2023/03/14 07:56:08;;;;;;;2.08;1.10;;;;;;;;;;4998765;28;20064;-67
2023/03/14 07:58:34;;;;;;;2.22;0.85;;;;;;;;;;5044920;28;20068;-69
2023/03/14 08:01:05;;;;;;;1.90;0.90;;;;;;;;;;5029726;28;20048;-70
2023/03/14 08:03:32;;;;;;;2.60;0.93;;;;;;;;;;5030813;28;20056;-70
2023/03/14 08:06:01;;;;;;;2.63;0.90;;;;;;;;;;5006250;28;20080;-67
2023/03/14 08:08:29;;;;;;;2.40;0.80;;;;;;;;;;5038403;28;20091;-67
2023/03/14 08:11:11;;;;;;;1.25;0.90;;;;;;;;;;5039863;28;20098;-71
2023/03/14 08:13:39;;;;;;;1.45;0.88;;;;;;;;;;5046862;28;20165;-72
2023/03/14 08:16:12;;;;;;;1.38;0.73;;;;;;;;;;5024313;28;20105;-67
2023/03/14 08:18:48;;;;;;;2.22;0.80;;;;;;;;;;5070483;28;20254;-68
2023/03/14 08:21:17;;;;;;;3.00;0.95;;;;;;;;;;5058456;28;20055;-67
2023/03/14 08:23:49;;;;;;;2.10;0.80;;;;;;;;;;5051382;28;20052;-69
2023/03/14 08:26:25;;;;;;;1.20;0.63;;;;;;;;;;5049567;28;20105;-67
2023/03/14 08:29:10;;;;;;;;;;;;;;;;;;;;;
2023/03/14 08:31:50;;;;;;;;;;;;;;;;;;;;;
2023/03/14 08:34:26;;;;;;;1.38;0.82;;;;;;;;;;5065614;28;20052;-70
2023/03/14 08:37:19;;;;;;;3.05;0.77;;;;;;;;;;4998688;28;20094;-71
2023/03/14 08:39:51;;;;;;;1.33;0.60;;;;;;;;;;5059474;28;20052;-70
2023/03/14 08:42:28;;;;;;;;;;;;;;;;;;;;;
2023/03/14 08:47:56;;;;;;;2.22;0.85;;;;;;;;;;5027831;28;20058;-70
2023/03/14 08:50:25;;;;;;;1.33;0.80;;;;;;;;;;5034747;28;20147;-68
2023/03/14 08:52:52;;;;;;;0.85;0.45;;;;;;;;;;5012180;28;20052;-69
2023/03/14 08:55:24;;;;;;;3.28;0.60;;;;;;;;;;5014199;28;20048;-67
2023/03/14 08:57:53;;;;;;;1.35;0.40;;;;;;;;;;4958950;28;20088;-69
2023/03/14 09:00:27;;;;;;;4.57;0.68;;;;;;;;;;4982602;28;20069;-69
2023/03/14 09:02:54;;;;;;;2.75;0.70;;;;;;;;;;5078959;28;20120;-72
2023/03/14 09:05:24;;;;;;;2.47;0.65;;;;;;;;;;5043161;27;20074;-69
2023/03/14 09:07:50;;;;;;;2.20;0.68;;;;;;;;;;5066658;27;20055;-67
2023/03/14 09:10:21;;;;;;;4.90;0.63;;;;;;;;;;5070119;27;20056;-71
2023/03/14 09:13:00;;;;;;;2.55;0.60;;;;;;;;;;5093520;28;20070;-70
2023/03/14 09:15:26;;;;;;;1.83;0.57;;;;;;;;;;5087771;27;20066;-66
2023/03/14 09:17:55;;;;;;;1.27;0.40;;;;;;;;;;5053490;27;20144;-68
2023/03/14 09:20:26;;;;;;;2.72;0.45;;;;;;;;;;5098548;28;20043;-69
2023/03/14 09:22:53;;;;;;;2.33;0.38;;;;;;;;;;5096484;27;20106;-69
2023/03/14 09:25:22;;;;;;;1.98;0.47;;;;;;;;;;5070890;27;20349;-70
2023/03/14 09:27:52;;;;;;;1.02;0.40;;;;;;;;;;5053618;27;20043;-65
2023/03/14 09:30:21;;;;;;;0.47;0.45;;;;;;;;;;5046277;28;20101;-70
2023/03/14 09:32:48;;;;;;;3.20;0.52;;;;;;;;;;5055113;28;20055;-66
2023/03/14 09:35:15;;;;;;;0.82;0.40;;;;;;;;;;5060188;28;20068;-69
2023/03/14 09:37:41;;;;;;;1.15;0.45;;;;;;;;;;5097661;28;20120;-69
2023/03/14 09:43:34;;;;;;;1.88;0.40;;;;;;;;;;5103877;27;20074;-70
2023/03/14 09:46:06;;;;;;;0.80;0.30;;;;;;;;;;5109195;27;20074;-69
2023/03/14 09:48:37;;;;;;;2.60;0.50;;;;;;;;;;5091514;27;20063;-70
2023/03/14 09:51:12;;;;;;;5.03;0.55;;;;;;;;;;5080992;28;20078;-69
2023/03/14 09:53:43;;;;;;;2.92;0.70;;;;;;;;;;5070462;28;20079;-67
2023/03/14 09:56:15;;;;;;;5.20;0.57;;;;;;;;;;5020050;27;20053;-68
2023/03/14 09:58:58;;;;;;;4.90;0.70;;;;;;;;;;5107063;27;20046;-67
2023/03/14 10:01:28;;;;;;;2.35;0.43;;;;;;;;;;5059686;28;21578;-71
2023/03/14 10:03:56;;;;;;;1.98;0.60;;;;;;;;;;5094437;27;20086;-69
2023/03/14 10:06:26;;;;;;;6.32;0.80;;;;;;;;;;5063648;27;20042;-67
2023/03/14 10:09:07;;;;;;;2.83;0.65;;;;;;;;;;5081116;27;20058;-66
2023/03/14 10:11:38;;;;;;;3.40;0.65;;;;;;;;;;5092959;28;20078;-65
2023/03/14 10:14:08;;;;;;;3.70;0.60;;;;;;;;;;5070201;27;20044;-66
2023/03/14 10:16:39;;;;;;;4.80;0.80;;;;;;;;;;5072059;28;20135;-66
2023/03/14 10:19:07;;;;;;;5.68;0.70;;;;;;;;;;5084147;28;20142;-67
2023/03/14 10:21:41;;;;;;;3.40;0.90;;;;;;;;;;5091370;28;20078;-64
2023/03/14 10:24:25;;;;;;;4.65;0.95;;;;;;;;;;5093968;28;20134;-65
2023/03/14 10:26:53;;;;;;;3.70;0.63;;;;;;;;;;5038009;28;20071;-70
2023/03/14 10:29:21;;;;;;;4.18;0.50;;;;;;;;;;5058860;27;21275;-64
2023/03/14 10:31:51;;;;;;;6.00;0.90;;;;;;;;;;5071163;27;20051;-69
2023/03/14 10:34:18;;;;;;;5.85;0.85;;;;;;;;;;5022375;28;20045;-65
2023/03/14 10:36:49;;;;;;;4.53;0.80;;;;;;;;;;5063499;27;20052;-64
2023/03/14 10:39:27;;;;;;;4.25;0.93;;;;;;;;;;5048175;27;20043;-65
2023/03/14 10:42:07;;;;;;;4.30;0.77;;;;;;;;;;5084930;27;20060;-67
2023/03/14 10:44:39;;;;;;;4.55;0.77;;;;;;;;;;5056866;28;20056;-68
2023/03/14 10:47:28;;;;;;;10.13;0.88;;;;;;;;;;5010952;28;20051;-66
2023/03/14 10:49:56;;;;;;;3.45;0.95;;;;;;;;;;5060880;27;20083;-65
2023/03/14 10:52:26;;;;;;;7.03;1.27;;;;;;;;;;5084083;28;20053;-68
2023/03/14 10:55:05;;;;;;;9.82;1.30;;;;;;;;;;5070971;28;20049;-67
2023/03/14 10:57:31;;;;;;;;;;;;;;;;;;5061136;27;20059;-69
2023/03/14 10:59:58;;;;;;;5.10;0.95;;;;;;;;;;5126261;27;19923;-66
2023/03/14 11:02:35;;;;;;;7.93;1.15;;;;;;;;;;5097239;27;20151;-64
2023/03/14 11:05:12;;;;;;;6.47;1.00;;;;;;;;;;5051605;28;20048;-64
2023/03/14 11:07:40;;;;;;;6.53;1.05;;;;;;;;;;5029975;28;20092;-67
2023/03/14 11:10:15;;;;;;;5.53;0.95;;;;;;;;;;5057042;28;20205;-67
2023/03/14 11:12:48;;;;;;;5.20;1.42;;;;;;;;;;5092385;28;20122;-65
2023/03/14 11:15:18;;;;;;;8.77;1.20;;;;;;;;;;5076199;27;20051;-68
2023/03/14 11:18:00;;;;;;;9.32;1.80;;;;;;;;;;5007085;27;20063;-63
2023/03/14 11:20:42;;;;;;;8.50;1.30;;;;;;;;;;5067621;27;20058;-66
2023/03/14 11:23:15;;;;;;;9.95;1.98;;;;;;;;;;5079087;28;20060;-67
2023/03/14 11:25:45;;;;;;;6.72;0.90;;;;;;;;;;5027853;28;20058;-67
2023/03/14 11:28:18;;;;;;;7.63;1.10;;;;;;;;;;5005663;28;20057;-69
2023/03/14 11:30:59;;;;;;;12.30;1.60;;;;;;;;;;5037309;28;20182;-68
2023/03/14 11:33:30;;;;;;;7.30;0.98;;;;;;;;;;5042035;28;20155;-67
2023/03/14 11:36:09;;;;;;;7.78;1.10;;;;;;;;;;5012309;28;20060;-65
2023/03/14 11:38:39;;;;;;;8.23;0.85;;;;;;;;;;5037654;28;20053;-69
2023/03/14 11:44:15;;;;;;;11.80;1.77;;;;;;;;;;5019203;28;20052;-62
2023/03/14 11:46:45;;;;;;;11.05;1.15;;;;;;;;;;5097703;27;20058;-65
2023/03/14 11:49:23;;;;;;;7.25;1.40;;;;;;;;;;5098407;27;20054;-63
2023/03/14 11:51:52;;;;;;;4.43;1.27;;;;;;;;;;5097758;27;20054;-66
2023/03/14 11:54:29;;;;;;;7.97;1.05;;;;;;;;;;5077077;28;20362;-66
2023/03/14 11:57:02;;;;;;;11.50;1.52;;;;;;;;;;5065166;27;20057;-66
2023/03/14 11:59:34;;;;;;;10.65;1.50;;;;;;;;;;5051629;27;20139;-66
2023/03/14 12:02:02;;;;;;;10.73;1.50;;;;;;;;;;5072027;28;20411;-65
2023/03/14 12:04:42;;;;;;;10.55;1.48;;;;;;;;;;5099183;27;20067;-64
2023/03/14 12:07:13;;;;;;;7.85;1.45;;;;;;;;;;5047937;28;20079;-67
2023/03/14 12:09:41;;;;;;;11.35;1.50;;;;;;;;;;5087197;27;20134;-66
2023/03/14 12:12:27;;;;;;;6.05;0.77;;;;;;;;;;5097767;27;20059;-66
2023/03/14 12:15:00;;;;;;;17.85;2.05;;;;;;;;;;5080799;27;20051;-69
2023/03/14 12:17:38;;;;;;;7.93;1.05;;;;;;;;;;5094698;27;20047;-64
2023/03/14 12:20:16;;;;;;;6.50;1.20;;;;;;;;;;5028630;28;20068;-63
2023/03/14 12:22:48;;;;;;;7.53;0.90;;;;;;;;;;5013357;28;20049;-69
2023/03/14 12:25:25;;;;;;;8.55;1.50;;;;;;;;;;4984688;28;20056;-67
2023/03/14 12:28:11;;;;;;;8.23;1.02;;;;;;;;;;5000466;28;20060;-64
2023/03/14 12:30:39;;;;;;;7.35;0.95;;;;;;;;;;5034470;28;20059;-69
2023/03/14 12:33:34;;;;;;;5.53;1.10;;;;;;;;;;4988168;28;20067;-65
2023/03/14 12:36:04;;;;;;;10.43;1.20;;;;;;;;;;5084907;27;20057;-65
2023/03/14 12:38:38;;;;;;;10.38;1.77;;;;;;;;;;5088550;27;20081;-69
2023/03/14 12:41:08;;;;;;;7.97;1.10;;;;;;;;;;5066827;27;20059;-66
2023/03/14 12:43:37;;;;;;;7.55;1.27;;;;;;;;;;5032553;28;20087;-66
2023/03/14 12:46:17;;;;;;;2.45;0.82;;;;;;;;;;5054957;28;20287;-67
2023/03/14 12:48:46;;;;;;;9.15;1.35;;;;;;;;;;5087139;28;20060;-67
2023/03/14 12:51:15;;;;;;;5.75;1.23;;;;;;;;;;5063940;28;20059;-64
2023/03/14 12:54:02;;;;;;;8.32;1.00;;;;;;;;;;5082053;28;20055;-65
2023/03/14 12:56:33;;;;;;;6.78;1.10;;;;;;;;;;5038294;28;20073;-66
2023/03/14 12:59:19;;;;;;;3.80;0.75;;;;;;;;;;5066279;27;20058;-65
2023/03/14 13:01:51;;;;;;;10.57;1.50;;;;;;;;;;5089702;27;20055;-69
2023/03/14 13:04:18;;;;;;;5.90;0.85;;;;;;;;;;5094838;28;20083;-68
2023/03/14 13:07:04;;;;;;;6.50;1.77;;;;;;;;;;5068526;28;20051;-65
2023/03/14 13:09:50;;;;;;;5.38;0.95;;;;;;;;;;5087252;27;20047;-66
2023/03/14 13:12:35;;;;;;;6.28;0.95;;;;;;;;;;5082782;28;20051;-65
2023/03/14 13:15:03;;;;;;;6.28;1.20;;;;;;;;;;5075685;27;20051;-65
2023/03/14 13:17:37;;;;;;;10.10;1.15;;;;;;;;;;5093162;28;20063;-65
2023/03/14 13:20:13;;;;;;;7.03;1.17;;;;;;;;;;5070387;27;20055;-65
2023/03/14 13:22:48;;;;;;;10.70;1.08;;;;;;;;;;5077382;27;20055;-65
2023/03/14 13:25:20;;;;;;;3.00;0.80;;;;;;;;;;5064400;27;20054;-67
2023/03/14 13:27:49;;;;;;;4.78;0.98;;;;;;;;;;5106798;27;20047;-66
2023/03/14 13:30:25;;;;;;;9.75;1.20;;;;;;;;;;5088581;27;20054;-65
2023/03/14 13:32:57;;;;;;;7.15;0.93;;;;;;;;;;5059509;28;20051;-65
2023/03/14 13:35:27;;;;;;;7.43;0.85;;;;;;;;;;5066349;27;20043;-66
2023/03/14 13:38:01;;;;;;;4.40;0.68;;;;;;;;;;5076887;27;20075;-66
2023/03/14 13:40:30;;;;;;;3.92;0.70;;;;;;;;;;5101853;27;20053;-64
2023/03/14 13:43:04;;;;;;;7.53;0.95;;;;;;;;;;5088950;27;20055;-64
2023/03/14 13:45:31;;;;;;;7.28;0.80;;;;;;;;;;5094531;27;20044;-65
2023/03/14 13:47:57;;;;;;;11.02;1.27;;;;;;;;;;5035181;28;20058;-65
2023/03/14 13:50:24;;;;;;;12.07;1.40;;;;;;;;;;5064555;28;20112;-63
2023/03/14 13:53:07;;;;;;;9.20;1.10;;;;;;;;;;5091937;28;20070;-67
2023/03/14 13:55:35;;;;;;;5.22;1.25;;;;;;;;;;5075190;28;20048;-66
2023/03/14 13:58:09;;;;;;;2.72;0.88;;;;;;;;;;5077487;27;20175;-66
2023/03/14 14:00:37;;;;;;;6.35;1.00;;;;;;;;;;5083053;27;20051;-64
2023/03/14 14:03:12;;;;;;;7.15;0.80;;;;;;;;;;5091411;28;20044;-67
2023/03/14 14:05:41;;;;;;;8.52;0.90;;;;;;;;;;5056021;28;20063;-66
2023/03/14 14:08:11;;;;;;;5.57;1.67;;;;;;;;;;5077599;28;20100;-66
2023/03/14 14:10:43;;;;;;;4.15;0.93;;;;;;;;;;5063885;28;20049;-67
2023/03/14 14:13:11;;;;;;;6.07;0.70;;;;;;;;;;5041411;27;20103;-65
2023/03/14 14:15:45;;;;;;;1.85;0.60;;;;;;;;;;5098662;27;20101;-64
2023/03/14 14:18:13;;;;;;;6.00;0.55;;;;;;;;;;5114425;27;20059;-67
2023/03/14 14:20:42;;;;;;;4.72;0.65;;;;;;;;;;5087537;27;20048;-65
2023/03/14 14:23:17;;;;;;;12.80;1.33;;;;;;;;;;5093786;27;20066;-67
2023/03/14 14:25:47;;;;;;;7.15;0.70;;;;;;;;;;5093238;28;20043;-65
2023/03/14 14:28:18;;;;;;;7.03;1.10;;;;;;;;;;5071053;27;20066;-66
2023/03/14 14:30:44;;;;;;;5.50;0.90;;;;;;;;;;5083837;28;20061;-65
2023/03/14 14:33:22;;;;;;;8.73;1.10;;;;;;;;;;5090684;28;20137;-66
2023/03/14 14:35:55;;;;;;;4.50;0.63;;;;;;;;;;5061081;28;20048;-69
2023/03/14 14:38:23;;;;;;;7.80;0.88;;;;;;;;;;5087744;28;20089;-65
2023/03/14 14:40:54;;;;;;;6.50;1.05;;;;;;;;;;5052772;27;20274;-68
2023/03/14 14:43:23;;;;;;;6.10;1.48;;;;;;;;;;5088541;28;20043;-68
2023/03/14 14:45:49;;;;;;;;;;;;;;;;;;5099236;28;20142;-65
2023/03/14 14:48:15;;;;;;;3.20;0.63;;;;;;;;;;5060671;27;19927;-66
2023/03/14 14:50:51;;;;;;;6.65;0.88;;;;;;;;;;5106772;27;20074;-67
2023/03/14 14:53:24;;;;;;;4.75;0.75;;;;;;;;;;5051622;27;20117;-63
2023/03/14 14:55:51;;;;;;;9.27;0.95;;;;;;;;;;5082059;28;20996;-66
2023/03/14 14:58:23;;;;;;;3.72;1.10;;;;;;;;;;5067977;27;20083;-67
2023/03/14 15:03:35;;;;;;;6.38;0.88;;;;;;;;;;5041623;28;20234;-68
2023/03/14 15:06:02;;;;;;;2.33;0.63;;;;;;;;;;5034289;28;20048;-67
2023/03/14 15:08:32;;;;;;;4.38;0.77;;;;;;;;;;5039650;28;20047;-63
2023/03/14 15:11:00;;;;;;;3.58;0.82;;;;;;;;;;5032457;28;20051;-68
2023/03/14 15:13:27;;;;;;;5.65;0.77;;;;;;;;;;5063990;28;20066;-69
2023/03/14 15:15:56;;;;;;;5.47;0.80;;;;;;;;;;5081437;28;20052;-66
2023/03/14 15:18:23;;;;;;;7.03;0.82;;;;;;;;;;5062683;27;20062;-68